Markham, Canada
Current Conditions -  °F | °C
As of 4:00 PM on Tuesday 21 Oct 2014 (Local Time) from CYKZ Reporting Station
Rain Showers Rain Showers  
Wind Chill: 38°   Ceiling: 1200
Heat Index: 45°   Visibility: 10mi
Dew Point: 43°   Wind: 14mph
Humidity: 93%   Direction: 20°NNE
Pressure: 29.98"   Gusts: 20mph
Location:  43.86°N, 79.34°W
Report Text: CYKZ 212000Z 02012G17KT 10SM -SHRA OVC012 07/06 A2998 RMK SC8SLP156
Loading
Personal Weather Stations






























Interactive Weather Map
Tropical Storm Tracking
New forecast layout! Learn more

10-Day Weather Forecast

Advertisements
Track Severe Weather on mobile